Avenal, California
Current Conditions -  °F | °C
As of 8:56 AM on Sunday 21 Dec 2014 (Local Time) from KNLC Reporting Station
Overcast Overcast  
Wind Chill: 46°   Ceiling: 200
Heat Index: 48°   Visibility: NA
Dew Point: 48°   Wind: 5mph
Humidity: 100%   Direction: 170°S
Pressure: 30.31"   Gusts: NA
Location:  36°N, 120.13°W
Report Text: KNLC 211656Z AUTO 17004KT OVC002 09/09 A3031 RMK AO2 SLP265 T00890089 RVRNO $
Loading
Personal Weather Stations






























Interactive Weather Map New forecast layout! Learn more

10-Day Weather Forecast

Advertisements
Track Severe Weather on mobile